sensor_id;sensor_type;location;lat;lon;timestamp;temperature;humidity
8715;DHT22;4394;51.208;8.904;2023-09-19T00:01:28;17.50;99.90
8715;DHT22;4394;51.208;8.904;2023-09-19T00:04:18;17.50;99.90
8715;DHT22;4394;51.208;8.904;2023-09-19T00:07:10;17.50;99.90
8715;DHT22;4394;51.208;8.904;2023-09-19T00:09:58;17.40;99.90
8715;DHT22;4394;51.208;8.904;2023-09-19T00:12:47;17.40;99.90
8715;DHT22;4394;51.208;8.904;2023-09-19T00:15:41;17.40;99.90
8715;DHT22;4394;51.208;8.904;2023-09-19T00:18:29;17.40;99.90
8715;DHT22;4394;51.208;8.904;2023-09-19T00:21:20;17.40;99.90
8715;DHT22;4394;51.208;8.904;2023-09-19T00:24:09;17.40;99.90
8715;DHT22;4394;51.208;8.904;2023-09-19T00:26:58;17.40;99.90
8715;DHT22;4394;51.208;8.904;2023-09-19T00:29:46;17.40;99.90
8715;DHT22;4394;51.208;8.904;2023-09-19T00:32:35;17.30;99.90
8715;DHT22;4394;51.208;8.904;2023-09-19T00:35:24;17.30;99.90
8715;DHT22;4394;51.208;8.904;2023-09-19T00:38:13;17.20;99.90
8715;DHT22;4394;51.208;8.904;2023-09-19T00:41:03;17.20;99.90
8715;DHT22;4394;51.208;8.904;2023-09-19T00:43:52;17.30;99.90
8715;DHT22;4394;51.208;8.904;2023-09-19T00:46:40;17.20;99.90
8715;DHT22;4394;51.208;8.904;2023-09-19T00:49:28;17.20;99.90
8715;DHT22;4394;51.208;8.904;2023-09-19T00:52:17;17.10;99.90
8715;DHT22;4394;51.208;8.904;2023-09-19T00:55:09;17.10;99.90
8715;DHT22;4394;51.208;8.904;2023-09-19T00:57:58;17.00;99.90
8715;DHT22;4394;51.208;8.904;2023-09-19T01:00:47;17.00;99.90
8715;DHT22;4394;51.208;8.904;2023-09-19T01:03:36;17.00;99.90
8715;DHT22;4394;51.208;8.904;2023-09-19T01:06:25;17.00;99.90
8715;DHT22;4394;51.208;8.904;2023-09-19T01:09:13;16.90;99.90
8715;DHT22;4394;51.208;8.904;2023-09-19T01:12:04;16.90;99.90
8715;DHT22;4394;51.208;8.904;2023-09-19T01:14:59;16.90;99.90
8715;DHT22;4394;51.208;8.904;2023-09-19T01:17:59;16.80;99.90
8715;DHT22;4394;51.208;8.904;2023-09-19T01:20:57;16.80;99.90
8715;DHT22;4394;51.208;8.904;2023-09-19T01:24:17;16.80;99.90
8715;DHT22;4394;51.208;8.904;2023-09-19T01:27:30;16.80;99.90
8715;DHT22;4394;51.208;8.904;2023-09-19T01:30:27;16.70;99.90
8715;DHT22;4394;51.208;8.904;2023-09-19T01:33:19;16.60;99.90
8715;DHT22;4394;51.208;8.904;2023-09-19T01:36:07;16.50;99.90
8715;DHT22;4394;51.208;8.904;2023-09-19T01:38:57;16.50;99.90
8715;DHT22;4394;51.208;8.904;2023-09-19T01:41:52;16.40;99.90
8715;DHT22;4394;51.208;8.904;2023-09-19T01:44:51;16.40;99.90
8715;DHT22;4394;51.208;8.904;2023-09-19T01:47:49;16.30;99.90
8715;DHT22;4394;51.208;8.904;2023-09-19T01:50:51;16.20;99.90
8715;DHT22;4394;51.208;8.904;2023-09-19T01:53:48;16.10;99.90
8715;DHT22;4394;51.208;8.904;2023-09-19T01:56:45;16.10;99.90
8715;DHT22;4394;51.208;8.904;2023-09-19T01:59:40;16.00;99.90
8715;DHT22;4394;51.208;8.904;2023-09-19T02:02:29;16.00;99.90
8715;DHT22;4394;51.208;8.904;2023-09-19T02:05:24;16.00;99.90
8715;DHT22;4394;51.208;8.904;2023-09-19T02:08:12;15.90;99.90
8715;DHT22;4394;51.208;8.904;2023-09-19T02:11:03;15.90;99.90
8715;DHT22;4394;51.208;8.904;2023-09-19T02:13:53;15.80;99.90
8715;DHT22;4394;51.208;8.904;2023-09-19T02:16:41;15.80;99.90
8715;DHT22;4394;51.208;8.904;2023-09-19T02:19:29;15.80;99.90
8715;DHT22;4394;51.208;8.904;2023-09-19T02:22:20;15.60;99.90
8715;DHT22;4394;51.208;8.904;2023-09-19T02:25:08;15.60;99.90
8715;DHT22;4394;51.208;8.904;2023-09-19T02:27:56;15.60;99.90
8715;DHT22;4394;51.208;8.904;2023-09-19T02:30:47;15.60;99.90
8715;DHT22;4394;51.208;8.904;2023-09-19T02:33:35;15.60;99.90
8715;DHT22;4394;51.208;8.904;2023-09-19T02:36:24;15.50;99.90
8715;DHT22;4394;51.208;8.904;2023-09-19T02:39:14;15.60;99.90
8715;DHT22;4394;51.208;8.904;2023-09-19T02:42:02;15.60;99.90
8715;DHT22;4394;51.208;8.904;2023-09-19T02:44:51;15.60;99.90
8715;DHT22;4394;51.208;8.904;2023-09-19T02:47:40;15.50;99.90
8715;DHT22;4394;51.208;8.904;2023-09-19T02:50:28;15.50;99.90
8715;DHT22;4394;51.208;8.904;2023-09-19T02:53:16;15.50;99.90
8715;DHT22;4394;51.208;8.904;2023-09-19T02:56:07;15.50;99.90
8715;DHT22;4394;51.208;8.904;2023-09-19T02:58:56;15.50;99.90
8715;DHT22;4394;51.208;8.904;2023-09-19T03:01:44;15.40;99.90
8715;DHT22;4394;51.208;8.904;2023-09-19T03:04:34;15.30;99.90
8715;DHT22;4394;51.208;8.904;2023-09-19T03:07:23;15.60;99.90
8715;DHT22;4394;51.208;8.904;2023-09-19T03:10:12;15.50;99.90
8715;DHT22;4394;51.208;8.904;2023-09-19T03:13:03;15.40;99.90
8715;DHT22;4394;51.208;8.904;2023-09-19T03:15:54;15.40;99.90
8715;DHT22;4394;51.208;8.904;2023-09-19T03:18:43;15.40;99.90
8715;DHT22;4394;51.208;8.904;2023-09-19T03:21:31;15.40;99.90
8715;DHT22;4394;51.208;8.904;2023-09-19T03:24:20;15.40;99.90
8715;DHT22;4394;51.208;8.904;2023-09-19T03:27:09;15.40;99.90
8715;DHT22;4394;51.208;8.904;2023-09-19T03:29:58;15.40;99.90
8715;DHT22;4394;51.208;8.904;2023-09-19T03:32:47;15.50;99.90
8715;DHT22;4394;51.208;8.904;2023-09-19T03:35:37;15.40;99.90
8715;DHT22;4394;51.208;8.904;2023-09-19T03:38:27;15.40;99.90
8715;DHT22;4394;51.208;8.904;2023-09-19T03:41:15;15.40;99.90
8715;DHT22;4394;51.208;8.904;2023-09-19T03:44:05;15.50;99.90
8715;DHT22;4394;51.208;8.904;2023-09-19T03:46:54;15.50;99.90
8715;DHT22;4394;51.208;8.904;2023-09-19T03:49:43;15.60;99.90
8715;DHT22;4394;51.208;8.904;2023-09-19T03:52:31;15.50;99.90
8715;DHT22;4394;51.208;8.904;2023-09-19T03:55:19;15.50;99.90
8715;DHT22;4394;51.208;8.904;2023-09-19T03:58:07;15.50;99.90
8715;DHT22;4394;51.208;8.904;2023-09-19T04:00:55;15.50;99.90
8715;DHT22;4394;51.208;8.904;2023-09-19T04:03:44;15.50;99.90
8715;DHT22;4394;51.208;8.904;2023-09-19T04:06:37;15.60;99.90
8715;DHT22;4394;51.208;8.904;2023-09-19T04:09:25;15.60;99.90
8715;DHT22;4394;51.208;8.904;2023-09-19T04:12:13;15.60;99.90
8715;DHT22;4394;51.208;8.904;2023-09-19T04:15:04;15.60;99.90
8715;DHT22;4394;51.208;8.904;2023-09-19T04:17:52;16.00;99.90
8715;DHT22;4394;51.208;8.904;2023-09-19T04:20:48;15.80;99.90
8715;DHT22;4394;51.208;8.904;2023-09-19T04:23:36;15.80;99.90
8715;DHT22;4394;51.208;8.904;2023-09-19T04:26:24;15.70;99.90
8715;DHT22;4394;51.208;8.904;2023-09-19T04:29:12;15.60;99.90
8715;DHT22;4394;51.208;8.904;2023-09-19T04:32:00;15.50;99.90
8715;DHT22;4394;51.208;8.904;2023-09-19T04:34:51;15.50;99.90
8715;DHT22;4394;51.208;8.904;2023-09-19T04:37:42;15.50;99.90
8715;DHT22;4394;51.208;8.904;2023-09-19T04:40:30;15.60;99.90
8715;DHT22;4394;51.208;8.904;2023-09-19T04:43:19;15.50;99.90
8715;DHT22;4394;51.208;8.904;2023-09-19T04:46:07;15.50;99.90
8715;DHT22;4394;51.208;8.904;2023-09-19T04:48:55;15.40;99.90
8715;DHT22;4394;51.208;8.904;2023-09-19T04:51:43;15.40;99.90
8715;DHT22;4394;51.208;8.904;2023-09-19T04:54:35;15.30;99.90
8715;DHT22;4394;51.208;8.904;2023-09-19T04:57:24;15.40;99.90
8715;DHT22;4394;51.208;8.904;2023-09-19T05:00:13;15.30;99.90
8715;DHT22;4394;51.208;8.904;2023-09-19T05:03:03;15.30;99.90
8715;DHT22;4394;51.208;8.904;2023-09-19T05:05:52;15.20;99.90
8715;DHT22;4394;51.208;8.904;2023-09-19T05:08:40;15.20;99.90
8715;DHT22;4394;51.208;8.904;2023-09-19T05:11:30;15.10;99.90
8715;DHT22;4394;51.208;8.904;2023-09-19T05:14:18;15.10;99.90
8715;DHT22;4394;51.208;8.904;2023-09-19T05:17:08;15.20;99.90
8715;DHT22;4394;51.208;8.904;2023-09-19T05:19:56;15.10;99.90
8715;DHT22;4394;51.208;8.904;2023-09-19T05:22:44;15.10;99.90
8715;DHT22;4394;51.208;8.904;2023-09-19T05:25:33;15.10;99.90
8715;DHT22;4394;51.208;8.904;2023-09-19T05:28:26;15.40;99.90
8715;DHT22;4394;51.208;8.904;2023-09-19T05:31:14;15.30;99.90
8715;DHT22;4394;51.208;8.904;2023-09-19T05:34:03;15.20;99.90
8715;DHT22;4394;51.208;8.904;2023-09-19T05:36:51;15.20;99.90
8715;DHT22;4394;51.208;8.904;2023-09-19T05:39:41;15.00;99.90
8715;DHT22;4394;51.208;8.904;2023-09-19T05:42:29;15.00;99.90
8715;DHT22;4394;51.208;8.904;2023-09-19T05:45:18;15.00;99.90
8715;DHT22;4394;51.208;8.904;2023-09-19T05:48:10;15.00;99.90
8715;DHT22;4394;51.208;8.904;2023-09-19T05:51:00;15.10;99.90
8715;DHT22;4394;51.208;8.904;2023-09-19T05:53:48;15.00;99.90
8715;DHT22;4394;51.208;8.904;2023-09-19T05:56:37;15.00;99.90
8715;DHT22;4394;51.208;8.904;2023-09-19T05:59:24;15.00;99.90
8715;DHT22;4394;51.208;8.904;2023-09-19T06:02:14;15.00;99.90
8715;DHT22;4394;51.208;8.904;2023-09-19T06:05:02;15.00;99.90
8715;DHT22;4394;51.208;8.904;2023-09-19T06:07:52;15.00;99.90
8715;DHT22;4394;51.208;8.904;2023-09-19T06:10:41;15.10;99.90
8715;DHT22;4394;51.208;8.904;2023-09-19T06:13:28;15.00;99.90
8715;DHT22;4394;51.208;8.904;2023-09-19T06:16:16;15.00;99.90
8715;DHT22;4394;51.208;8.904;2023-09-19T06:19:06;15.00;99.90
8715;DHT22;4394;51.208;8.904;2023-09-19T06:21:55;15.00;99.90
8715;DHT22;4394;51.208;8.904;2023-09-19T06:24:46;15.00;99.90
8715;DHT22;4394;51.208;8.904;2023-09-19T06:27:34;15.00;99.90
8715;DHT22;4394;51.208;8.904;2023-09-19T06:30:24;15.50;99.90
8715;DHT22;4394;51.208;8.904;2023-09-19T06:33:12;15.40;99.90
8715;DHT22;4394;51.208;8.904;2023-09-19T06:36:07;15.30;99.90
8715;DHT22;4394;51.208;8.904;2023-09-19T06:38:55;15.30;99.90
8715;DHT22;4394;51.208;8.904;2023-09-19T06:41:43;15.30;99.90
8715;DHT22;4394;51.208;8.904;2023-09-19T06:44:32;15.30;99.90
8715;DHT22;4394;51.208;8.904;2023-09-19T06:47:20;15.30;99.90
8715;DHT22;4394;51.208;8.904;2023-09-19T06:50:08;15.30;99.90
8715;DHT22;4394;51.208;8.904;2023-09-19T06:53:01;15.30;99.90
8715;DHT22;4394;51.208;8.904;2023-09-19T06:55:50;15.30;99.90
8715;DHT22;4394;51.208;8.904;2023-09-19T06:58:38;15.30;99.90
8715;DHT22;4394;51.208;8.904;2023-09-19T07:01:26;15.30;99.90
8715;DHT22;4394;51.208;8.904;2023-09-19T07:04:14;15.40;99.90
8715;DHT22;4394;51.208;8.904;2023-09-19T07:07:03;15.40;99.90
8715;DHT22;4394;51.208;8.904;2023-09-19T07:09:53;15.50;99.90
8715;DHT22;4394;51.208;8.904;2023-09-19T07:12:41;15.50;99.90
8715;DHT22;4394;51.208;8.904;2023-09-19T07:15:32;15.50;99.90
8715;DHT22;4394;51.208;8.904;2023-09-19T07:18:23;15.50;99.90
8715;DHT22;4394;51.208;8.904;2023-09-19T07:21:11;15.60;99.90
8715;DHT22;4394;51.208;8.904;2023-09-19T07:24:02;15.60;99.90
8715;DHT22;4394;51.208;8.904;2023-09-19T07:26:52;15.60;99.90
8715;DHT22;4394;51.208;8.904;2023-09-19T07:29:40;15.70;99.90
8715;DHT22;4394;51.208;8.904;2023-09-19T07:32:27;15.70;99.90
8715;DHT22;4394;51.208;8.904;2023-09-19T07:35:16;15.70;99.90
8715;DHT22;4394;51.208;8.904;2023-09-19T07:38:07;15.80;99.90
8715;DHT22;4394;51.208;8.904;2023-09-19T07:41:00;15.80;99.90
8715;DHT22;4394;51.208;8.904;2023-09-19T07:43:50;15.90;99.90
8715;DHT22;4394;51.208;8.904;2023-09-19T07:46:38;15.90;99.90
8715;DHT22;4394;51.208;8.904;2023-09-19T07:49:26;15.90;99.90
8715;DHT22;4394;51.208;8.904;2023-09-19T07:52:14;16.00;99.90
8715;DHT22;4394;51.208;8.904;2023-09-19T07:55:03;16.00;99.90
8715;DHT22;4394;51.208;8.904;2023-09-19T07:57:55;16.00;99.90
8715;DHT22;4394;51.208;8.904;2023-09-19T08:00:45;16.10;99.90
8715;DHT22;4394;51.208;8.904;2023-09-19T08:03:33;16.20;99.90
8715;DHT22;4394;51.208;8.904;2023-09-19T08:06:21;16.20;99.90
8715;DHT22;4394;51.208;8.904;2023-09-19T08:09:09;16.20;99.90
8715;DHT22;4394;51.208;8.904;2023-09-19T08:11:58;16.20;99.90
8715;DHT22;4394;51.208;8.904;2023-09-19T08:14:46;16.20;99.90
8715;DHT22;4394;51.208;8.904;2023-09-19T08:17:35;16.20;99.90
8715;DHT22;4394;51.208;8.904;2023-09-19T08:20:23;16.20;99.90
8715;DHT22;4394;51.208;8.904;2023-09-19T08:23:11;16.20;99.90
8715;DHT22;4394;51.208;8.904;2023-09-19T08:25:59;16.20;99.90
8715;DHT22;4394;51.208;8.904;2023-09-19T08:28:53;16.20;99.90
8715;DHT22;4394;51.208;8.904;2023-09-19T08:31:42;16.30;99.90
8715;DHT22;4394;51.208;8.904;2023-09-19T08:34:33;16.30;99.90
8715;DHT22;4394;51.208;8.904;2023-09-19T08:37:25;16.30;99.90
8715;DHT22;4394;51.208;8.904;2023-09-19T08:40:13;16.30;99.90
8715;DHT22;4394;51.208;8.904;2023-09-19T08:43:01;16.30;99.90
8715;DHT22;4394;51.208;8.904;2023-09-19T08:45:49;16.30;99.90
8715;DHT22;4394;51.208;8.904;2023-09-19T08:48:44;16.40;99.90
8715;DHT22;4394;51.208;8.904;2023-09-19T08:51:41;16.40;99.90
8715;DHT22;4394;51.208;8.904;2023-09-19T08:54:36;16.40;99.90
8715;DHT22;4394;51.208;8.904;2023-09-19T08:57:28;16.30;99.90
8715;DHT22;4394;51.208;8.904;2023-09-19T09:00:17;16.60;99.90
8715;DHT22;4394;51.208;8.904;2023-09-19T09:03:10;16.50;99.90
8715;DHT22;4394;51.208;8.904;2023-09-19T09:06:00;16.50;99.90
8715;DHT22;4394;51.208;8.904;2023-09-19T09:08:50;16.50;99.90
8715;DHT22;4394;51.208;8.904;2023-09-19T09:11:38;16.50;99.90
8715;DHT22;4394;51.208;8.904;2023-09-19T09:14:27;16.50;99.90
8715;DHT22;4394;51.208;8.904;2023-09-19T09:17:16;16.50;99.90
8715;DHT22;4394;51.208;8.904;2023-09-19T09:20:08;16.50;99.90
8715;DHT22;4394;51.208;8.904;2023-09-19T09:22:57;16.60;99.90
8715;DHT22;4394;51.208;8.904;2023-09-19T09:25:50;16.60;99.90
8715;DHT22;4394;51.208;8.904;2023-09-19T09:28:45;16.70;99.90
8715;DHT22;4394;51.208;8.904;2023-09-19T09:31:34;16.70;99.90
8715;DHT22;4394;51.208;8.904;2023-09-19T09:34:32;16.70;99.90
8715;DHT22;4394;51.208;8.904;2023-09-19T09:37:21;16.70;99.90
8715;DHT22;4394;51.208;8.904;2023-09-19T09:40:11;16.80;99.90
8715;DHT22;4394;51.208;8.904;2023-09-19T09:43:33;16.90;99.90
8715;DHT22;4394;51.208;8.904;2023-09-19T09:46:27;16.90;99.90
8715;DHT22;4394;51.208;8.904;2023-09-19T09:49:33;16.80;99.90
8715;DHT22;4394;51.208;8.904;2023-09-19T09:52:22;16.90;99.90
8715;DHT22;4394;51.208;8.904;2023-09-19T09:55:11;16.80;99.90
8715;DHT22;4394;51.208;8.904;2023-09-19T09:58:18;16.80;99.90
8715;DHT22;4394;51.208;8.904;2023-09-19T10:01:11;16.80;99.90
8715;DHT22;4394;51.208;8.904;2023-09-19T10:04:02;16.80;99.90
8715;DHT22;4394;51.208;8.904;2023-09-19T10:06:52;16.90;99.90
8715;DHT22;4394;51.208;8.904;2023-09-19T10:09:47;16.90;99.90
8715;DHT22;4394;51.208;8.904;2023-09-19T10:12:43;16.90;99.90
8715;DHT22;4394;51.208;8.904;2023-09-19T10:15:33;16.90;99.90
8715;DHT22;4394;51.208;8.904;2023-09-19T10:18:25;16.90;99.90
8715;DHT22;4394;51.208;8.904;2023-09-19T10:21:14;16.90;99.90
8715;DHT22;4394;51.208;8.904;2023-09-19T10:24:09;16.90;99.90
8715;DHT22;4394;51.208;8.904;2023-09-19T10:26:57;16.90;99.90
8715;DHT22;4394;51.208;8.904;2023-09-19T10:29:49;17.00;99.90
8715;DHT22;4394;51.208;8.904;2023-09-19T10:32:40;17.00;99.90
8715;DHT22;4394;51.208;8.904;2023-09-19T10:35:30;17.10;99.90
8715;DHT22;4394;51.208;8.904;2023-09-19T10:38:23;17.20;99.90
8715;DHT22;4394;51.208;8.904;2023-09-19T10:41:14;17.20;99.90
8715;DHT22;4394;51.208;8.904;2023-09-19T10:44:04;17.20;99.90
8715;DHT22;4394;51.208;8.904;2023-09-19T10:46:53;17.20;99.90
8715;DHT22;4394;51.208;8.904;2023-09-19T10:49:44;17.30;99.90
8715;DHT22;4394;51.208;8.904;2023-09-19T10:52:40;17.40;99.90
8715;DHT22;4394;51.208;8.904;2023-09-19T10:55:30;17.50;99.90
8715;DHT22;4394;51.208;8.904;2023-09-19T10:58:26;17.60;99.90
8715;DHT22;4394;51.208;8.904;2023-09-19T11:01:15;17.70;99.90
8715;DHT22;4394;51.208;8.904;2023-09-19T11:04:26;17.70;99.90
8715;DHT22;4394;51.208;8.904;2023-09-19T11:07:15;17.80;99.90
8715;DHT22;4394;51.208;8.904;2023-09-19T11:10:05;17.70;99.90
8715;DHT22;4394;51.208;8.904;2023-09-19T11:12:57;17.70;99.90
8715;DHT22;4394;51.208;8.904;2023-09-19T11:16:12;17.70;99.90
8715;DHT22;4394;51.208;8.904;2023-09-19T11:19:06;17.60;99.90
8715;DHT22;4394;51.208;8.904;2023-09-19T11:21:57;17.60;99.90
8715;DHT22;4394;51.208;8.904;2023-09-19T11:24:46;17.70;99.90
8715;DHT22;4394;51.208;8.904;2023-09-19T11:27:35;17.70;99.90
8715;DHT22;4394;51.208;8.904;2023-09-19T11:30:45;17.70;99.90
8715;DHT22;4394;51.208;8.904;2023-09-19T11:33:34;17.80;99.90
8715;DHT22;4394;51.208;8.904;2023-09-19T11:36:35;18.20;99.90
8715;DHT22;4394;51.208;8.904;2023-09-19T11:39:25;17.90;99.90
8715;DHT22;4394;51.208;8.904;2023-09-19T11:46:08;18.10;99.90
8715;DHT22;4394;51.208;8.904;2023-09-19T11:49:05;18.20;99.90
8715;DHT22;4394;51.208;8.904;2023-09-19T11:52:00;18.00;99.90
8715;DHT22;4394;51.208;8.904;2023-09-19T11:54:55;18.00;99.90
8715;DHT22;4394;51.208;8.904;2023-09-19T11:57:43;18.20;99.90
8715;DHT22;4394;51.208;8.904;2023-09-19T12:00:32;18.10;99.90
8715;DHT22;4394;51.208;8.904;2023-09-19T12:03:22;18.40;99.90
8715;DHT22;4394;51.208;8.904;2023-09-19T12:06:12;18.50;99.90
8715;DHT22;4394;51.208;8.904;2023-09-19T12:09:01;18.60;99.90
8715;DHT22;4394;51.208;8.904;2023-09-19T12:11:54;18.70;99.90
8715;DHT22;4394;51.208;8.904;2023-09-19T12:14:43;18.80;99.90
8715;DHT22;4394;51.208;8.904;2023-09-19T12:17:35;18.70;99.90
8715;DHT22;4394;51.208;8.904;2023-09-19T12:20:25;18.80;99.90
8715;DHT22;4394;51.208;8.904;2023-09-19T12:23:13;18.80;99.90
8715;DHT22;4394;51.208;8.904;2023-09-19T12:26:02;18.80;99.90
8715;DHT22;4394;51.208;8.904;2023-09-19T12:28:59;18.80;99.90
8715;DHT22;4394;51.208;8.904;2023-09-19T12:31:50;18.80;99.90
8715;DHT22;4394;51.208;8.904;2023-09-19T12:34:38;18.80;99.90
8715;DHT22;4394;51.208;8.904;2023-09-19T12:37:30;18.80;99.90
8715;DHT22;4394;51.208;8.904;2023-09-19T12:40:23;18.90;99.90
8715;DHT22;4394;51.208;8.904;2023-09-19T12:43:16;18.90;99.90
8715;DHT22;4394;51.208;8.904;2023-09-19T12:46:04;19.00;99.90
8715;DHT22;4394;51.208;8.904;2023-09-19T12:49:17;19.10;99.90
8715;DHT22;4394;51.208;8.904;2023-09-19T12:52:05;19.20;99.90
8715;DHT22;4394;51.208;8.904;2023-09-19T12:54:55;19.30;99.90
8715;DHT22;4394;51.208;8.904;2023-09-19T12:57:44;19.30;99.90
8715;DHT22;4394;51.208;8.904;2023-09-19T13:00:43;19.30;99.90
8715;DHT22;4394;51.208;8.904;2023-09-19T13:03:32;19.20;99.90
8715;DHT22;4394;51.208;8.904;2023-09-19T13:06:35;19.20;99.90
8715;DHT22;4394;51.208;8.904;2023-09-19T13:09:27;19.20;99.90
8715;DHT22;4394;51.208;8.904;2023-09-19T13:12:38;19.10;99.90
8715;DHT22;4394;51.208;8.904;2023-09-19T13:15:52;19.30;99.90
8715;DHT22;4394;51.208;8.904;2023-09-19T13:18:44;19.50;99.90
8715;DHT22;4394;51.208;8.904;2023-09-19T13:21:33;19.60;99.90
8715;DHT22;4394;51.208;8.904;2023-09-19T13:24:25;19.70;99.90
8715;DHT22;4394;51.208;8.904;2023-09-19T13:27:14;19.80;99.90
8715;DHT22;4394;51.208;8.904;2023-09-19T13:30:05;19.90;99.90
8715;DHT22;4394;51.208;8.904;2023-09-19T13:33:04;20.00;99.90
8715;DHT22;4394;51.208;8.904;2023-09-19T13:35:53;20.00;99.90
8715;DHT22;4394;51.208;8.904;2023-09-19T13:38:41;20.10;99.90
8715;DHT22;4394;51.208;8.904;2023-09-19T13:41:34;20.10;99.90
8715;DHT22;4394;51.208;8.904;2023-09-19T13:44:23;20.10;99.90
8715;DHT22;4394;51.208;8.904;2023-09-19T13:47:12;20.10;99.90
8715;DHT22;4394;51.208;8.904;2023-09-19T13:50:02;20.10;99.90
8715;DHT22;4394;51.208;8.904;2023-09-19T13:52:51;20.10;99.90
8715;DHT22;4394;51.208;8.904;2023-09-19T13:55:39;20.20;99.90
8715;DHT22;4394;51.208;8.904;2023-09-19T13:58:28;20.20;99.90
8715;DHT22;4394;51.208;8.904;2023-09-19T14:01:18;20.20;99.90
8715;DHT22;4394;51.208;8.904;2023-09-19T14:04:07;20.20;99.90
8715;DHT22;4394;51.208;8.904;2023-09-19T14:06:56;20.50;99.90
8715;DHT22;4394;51.208;8.904;2023-09-19T14:09:45;20.50;99.90
8715;DHT22;4394;51.208;8.904;2023-09-19T14:12:33;20.60;99.90
8715;DHT22;4394;51.208;8.904;2023-09-19T14:15:22;20.60;99.90
8715;DHT22;4394;51.208;8.904;2023-09-19T14:18:16;20.70;99.90
8715;DHT22;4394;51.208;8.904;2023-09-19T14:21:07;20.70;99.90
8715;DHT22;4394;51.208;8.904;2023-09-19T14:23:57;20.70;99.90
8715;DHT22;4394;51.208;8.904;2023-09-19T14:26:45;20.70;99.90
8715;DHT22;4394;51.208;8.904;2023-09-19T14:29:34;20.70;99.90
8715;DHT22;4394;51.208;8.904;2023-09-19T14:32:22;20.70;99.90
8715;DHT22;4394;51.208;8.904;2023-09-19T14:35:10;20.80;99.90
8715;DHT22;4394;51.208;8.904;2023-09-19T14:38:04;20.80;99.90
8715;DHT22;4394;51.208;8.904;2023-09-19T14:40:59;20.80;99.90
8715;DHT22;4394;51.208;8.904;2023-09-19T14:43:48;20.90;99.90
8715;DHT22;4394;51.208;8.904;2023-09-19T14:46:36;20.90;99.90
8715;DHT22;4394;51.208;8.904;2023-09-19T14:49:25;20.90;99.90
8715;DHT22;4394;51.208;8.904;2023-09-19T14:52:13;20.90;99.90
8715;DHT22;4394;51.208;8.904;2023-09-19T14:55:06;20.90;99.90
8715;DHT22;4394;51.208;8.904;2023-09-19T14:57:56;21.00;99.90
8715;DHT22;4394;51.208;8.904;2023-09-19T15:00:46;21.00;99.90
8715;DHT22;4394;51.208;8.904;2023-09-19T15:03:35;21.10;99.90
8715;DHT22;4394;51.208;8.904;2023-09-19T15:06:23;21.10;99.90
8715;DHT22;4394;51.208;8.904;2023-09-19T15:09:13;21.20;99.90
8715;DHT22;4394;51.208;8.904;2023-09-19T15:12:04;21.20;99.90
8715;DHT22;4394;51.208;8.904;2023-09-19T15:14:52;21.30;99.90
8715;DHT22;4394;51.208;8.904;2023-09-19T15:17:40;21.30;99.90
8715;DHT22;4394;51.208;8.904;2023-09-19T15:20:28;21.30;99.90
8715;DHT22;4394;51.208;8.904;2023-09-19T15:23:17;21.30;99.90
8715;DHT22;4394;51.208;8.904;2023-09-19T15:26:06;21.30;99.90
8715;DHT22;4394;51.208;8.904;2023-09-19T15:28:56;21.30;99.90
8715;DHT22;4394;51.208;8.904;2023-09-19T15:31:44;21.40;99.90
8715;DHT22;4394;51.208;8.904;2023-09-19T15:34:32;21.40;99.90
8715;DHT22;4394;51.208;8.904;2023-09-19T15:37:20;21.40;99.90
8715;DHT22;4394;51.208;8.904;2023-09-19T15:40:09;21.30;99.90
8715;DHT22;4394;51.208;8.904;2023-09-19T15:42:59;21.30;99.90
8715;DHT22;4394;51.208;8.904;2023-09-19T15:45:49;21.30;99.90
8715;DHT22;4394;51.208;8.904;2023-09-19T15:48:37;21.30;99.90
8715;DHT22;4394;51.208;8.904;2023-09-19T15:51:25;21.40;99.90
8715;DHT22;4394;51.208;8.904;2023-09-19T15:54:14;21.30;99.90
8715;DHT22;4394;51.208;8.904;2023-09-19T15:57:03;21.30;99.90
8715;DHT22;4394;51.208;8.904;2023-09-19T15:59:51;21.20;99.90
8715;DHT22;4394;51.208;8.904;2023-09-19T16:02:41;21.00;99.90
8715;DHT22;4394;51.208;8.904;2023-09-19T16:05:35;21.00;99.90
8715;DHT22;4394;51.208;8.904;2023-09-19T16:08:24;20.80;99.90
8715;DHT22;4394;51.208;8.904;2023-09-19T16:11:12;20.60;99.90
8715;DHT22;4394;51.208;8.904;2023-09-19T16:14:01;20.40;99.90
8715;DHT22;4394;51.208;8.904;2023-09-19T16:16:49;20.30;99.90
8715;DHT22;4394;51.208;8.904;2023-09-19T16:19:39;20.20;99.90
8715;DHT22;4394;51.208;8.904;2023-09-19T16:22:29;20.20;99.90
8715;DHT22;4394;51.208;8.904;2023-09-19T16:25:18;20.10;99.90
8715;DHT22;4394;51.208;8.904;2023-09-19T16:28:06;20.10;99.90
8715;DHT22;4394;51.208;8.904;2023-09-19T16:30:57;20.10;99.90
8715;DHT22;4394;51.208;8.904;2023-09-19T16:33:47;20.00;99.90
8715;DHT22;4394;51.208;8.904;2023-09-19T16:36:36;20.10;99.90
8715;DHT22;4394;51.208;8.904;2023-09-19T16:39:25;20.00;99.90
8715;DHT22;4394;51.208;8.904;2023-09-19T16:42:13;19.90;99.90
8715;DHT22;4394;51.208;8.904;2023-09-19T16:45:08;19.90;99.90
8715;DHT22;4394;51.208;8.904;2023-09-19T16:47:57;19.80;99.90
8715;DHT22;4394;51.208;8.904;2023-09-19T16:50:45;20.00;99.90
8715;DHT22;4394;51.208;8.904;2023-09-19T16:53:35;19.90;99.90
8715;DHT22;4394;51.208;8.904;2023-09-19T16:56:23;19.80;99.90
8715;DHT22;4394;51.208;8.904;2023-09-19T16:59:11;19.60;99.90
8715;DHT22;4394;51.208;8.904;2023-09-19T17:02:00;19.60;99.90
8715;DHT22;4394;51.208;8.904;2023-09-19T17:04:48;19.60;99.90
8715;DHT22;4394;51.208;8.904;2023-09-19T17:07:36;19.50;99.90
8715;DHT22;4394;51.208;8.904;2023-09-19T17:10:29;19.50;99.90
8715;DHT22;4394;51.208;8.904;2023-09-19T17:13:17;19.40;99.90
8715;DHT22;4394;51.208;8.904;2023-09-19T17:16:06;19.40;99.90
8715;DHT22;4394;51.208;8.904;2023-09-19T17:18:56;19.40;99.90
8715;DHT22;4394;51.208;8.904;2023-09-19T17:21:44;19.30;99.90
8715;DHT22;4394;51.208;8.904;2023-09-19T17:24:32;19.20;99.90
8715;DHT22;4394;51.208;8.904;2023-09-19T17:27:22;19.20;99.90
8715;DHT22;4394;51.208;8.904;2023-09-19T17:30:12;19.10;99.90
8715;DHT22;4394;51.208;8.904;2023-09-19T17:33:02;19.00;99.90
8715;DHT22;4394;51.208;8.904;2023-09-19T17:35:51;19.00;99.90
8715;DHT22;4394;51.208;8.904;2023-09-19T17:38:39;19.00;99.90
8715;DHT22;4394;51.208;8.904;2023-09-19T17:41:27;18.90;99.90
8715;DHT22;4394;51.208;8.904;2023-09-19T17:44:17;18.90;99.90
8715;DHT22;4394;51.208;8.904;2023-09-19T17:47:05;18.90;99.90
8715;DHT22;4394;51.208;8.904;2023-09-19T17:49:53;18.90;99.90
8715;DHT22;4394;51.208;8.904;2023-09-19T17:52:42;18.80;99.90
8715;DHT22;4394;51.208;8.904;2023-09-19T17:55:30;18.70;99.90
8715;DHT22;4394;51.208;8.904;2023-09-19T17:58:18;18.70;99.90
8715;DHT22;4394;51.208;8.904;2023-09-19T18:01:10;18.60;99.90
8715;DHT22;4394;51.208;8.904;2023-09-19T18:03:58;18.60;99.90
8715;DHT22;4394;51.208;8.904;2023-09-19T18:06:49;18.60;99.90
8715;DHT22;4394;51.208;8.904;2023-09-19T18:09:37;18.50;99.90
8715;DHT22;4394;51.208;8.904;2023-09-19T18:12:25;18.50;99.90
8715;DHT22;4394;51.208;8.904;2023-09-19T18:15:13;18.50;99.90
8715;DHT22;4394;51.208;8.904;2023-09-19T18:18:03;18.40;99.90
8715;DHT22;4394;51.208;8.904;2023-09-19T18:20:51;18.50;99.90
8715;DHT22;4394;51.208;8.904;2023-09-19T18:23:39;18.40;99.90
8715;DHT22;4394;51.208;8.904;2023-09-19T18:26:28;18.40;99.90
8715;DHT22;4394;51.208;8.904;2023-09-19T18:29:32;18.30;99.90
8715;DHT22;4394;51.208;8.904;2023-09-19T18:32:20;18.30;99.90
8715;DHT22;4394;51.208;8.904;2023-09-19T18:35:09;18.30;99.90
8715;DHT22;4394;51.208;8.904;2023-09-19T18:37:57;18.20;99.90